Time;durP1;ratioP1;P1;durP2;ratioP2;P2;SDS_P1;SDS_P2;PMS_P1;PMS_P2;Temp;Humidity;BMP_temperature;BMP_pressure;BME280_temperature;BME280_humidity;BME280_pressure;Samples;Min_cycle;Max_cycle;Signal;HPM_P1;HPM_P2
2022/08/23 00:01:01;;;;;;;5.22;3.40;;;21.70;56.10;;;;;;5065342;28;20977;-71
2022/08/23 00:03:28;;;;;;;4.77;3.80;;;21.70;55.30;;;;;;5056662;28;20511;-71
2022/08/23 00:05:55;;;;;;;5.00;3.90;;;21.70;55.00;;;;;;5063945;28;20427;-71
2022/08/23 00:08:21;;;;;;;5.25;3.88;;;21.70;55.90;;;;;;5051877;28;20427;-71
2022/08/23 00:10:50;;;;;;;5.07;3.75;;;21.60;55.90;;;;;;5064528;28;20523;-72
2022/08/23 00:13:16;;;;;;;6.03;3.80;;;21.60;56.30;;;;;;5068464;28;21074;-72
2022/08/23 00:15:43;;;;;;;4.05;3.75;;;21.50;56.70;;;;;;5066353;28;20474;-71
2022/08/23 00:18:10;;;;;;;4.55;4.10;;;21.50;58.30;;;;;;5069611;28;20510;-72
2022/08/23 00:20:37;;;;;;;4.20;3.80;;;21.40;57.30;;;;;;5067906;28;20455;-72
2022/08/23 00:23:04;;;;;;;6.00;3.95;;;21.40;56.30;;;;;;5069945;28;20502;-71
2022/08/23 00:25:31;;;;;;;4.82;3.97;;;21.30;56.10;;;;;;5068958;28;20466;-70
2022/08/23 00:27:59;;;;;;;4.93;4.00;;;21.30;56.80;;;;;;5052008;28;20425;-71
2022/08/23 00:30:26;;;;;;;5.25;3.63;;;21.20;57.30;;;;;;5058916;28;20436;-71
2022/08/23 00:32:53;;;;;;;4.80;4.22;;;21.20;58.40;;;;;;5067671;28;20439;-72
2022/08/23 00:35:21;;;;;;;6.05;4.60;;;21.20;59.20;;;;;;5069399;28;20434;-72
2022/08/23 00:37:48;;;;;;;5.60;4.45;;;21.20;58.50;;;;;;5068372;28;20831;-71
2022/08/23 00:40:17;;;;;;;4.70;4.20;;;21.10;58.90;;;;;;5063543;28;20500;-72
2022/08/23 00:48:30;;;;;;;5.88;5.20;;;21.10;60.50;;;;;;5067790;28;20485;-73
2022/08/23 00:51:02;;;;;;;5.53;4.93;;;21.00;61.60;;;;;;5067759;28;20455;-72
2022/08/23 00:53:32;;;;;;;5.90;5.25;;;21.00;61.80;;;;;;5067452;28;20437;-71
2022/08/23 00:56:03;;;;;;;6.10;5.55;;;21.00;61.10;;;;;;5069211;28;20424;-71
2022/08/23 00:58:30;;;;;;;6.78;6.07;;;21.00;60.70;;;;;;5068765;28;21144;-72
2022/08/23 01:01:00;;;;;;;6.37;5.10;;;20.90;61.20;;;;;;5059417;28;21129;-72
2022/08/23 01:03:31;;;;;;;6.60;5.60;;;20.80;60.70;;;;;;5059084;28;20457;-70
2022/08/23 01:06:04;;;;;;;5.72;4.88;;;20.80;60.70;;;;;;5065026;28;20450;-71
2022/08/23 01:08:32;;;;;;;5.60;5.10;;;20.70;61.00;;;;;;5070003;28;20420;-71
2022/08/23 01:11:03;;;;;;;6.55;5.00;;;20.60;61.00;;;;;;5068674;28;20490;-70
2022/08/23 01:13:37;;;;;;;5.80;5.07;;;20.60;61.80;;;;;;5097875;22;20430;-71
2022/08/23 01:16:09;;;;;;;5.65;5.10;;;20.60;61.80;;;;;;5082554;28;20422;-71
2022/08/23 01:18:37;;;;;;;6.10;4.80;;;20.50;61.00;;;;;;5085593;28;20516;-70
2022/08/23 01:21:12;;;;;;;8.18;5.50;;;20.50;61.20;;;;;;5073669;28;20470;-72
2022/08/23 01:23:44;;;;;;;9.60;6.00;;;20.40;61.50;;;;;;5083248;28;20562;-71
2022/08/23 01:26:13;;;;;;;6.33;5.73;;;20.40;62.20;;;;;;5084590;28;20907;-71
2022/08/23 01:28:40;;;;;;;7.32;5.90;;;20.30;62.50;;;;;;5081864;28;20434;-71
2022/08/23 01:31:08;;;;;;;8.43;6.68;;;20.30;63.00;;;;;;5085024;28;20876;-71
2022/08/23 01:33:36;;;;;;;7.97;6.60;;;20.30;63.50;;;;;;5088519;28;20486;-71
2022/08/23 01:36:04;;;;;;;10.45;6.70;;;20.30;63.90;;;;;;5079177;28;20436;-72
2022/08/23 01:38:31;;;;;;;9.07;5.90;;;20.20;64.50;;;;;;5084180;28;20515;-72
2022/08/23 01:40:59;;;;;;;6.80;5.10;;;20.20;63.80;;;;;;5075132;28;20513;-71
2022/08/23 01:43:26;;;;;;;8.25;6.03;;;20.10;64.30;;;;;;5082787;28;20508;-71
2022/08/23 01:45:54;;;;;;;7.30;5.50;;;20.10;64.60;;;;;;5080186;28;20433;-71
2022/08/23 01:48:22;;;;;;;6.63;5.07;;;20.00;64.60;;;;;;5082863;28;20437;-72
2022/08/23 01:50:49;;;;;;;7.30;5.20;;;20.00;64.60;;;;;;5082609;28;20436;-71
2022/08/23 01:53:16;;;;;;;6.30;5.30;;;19.90;65.70;;;;;;5084602;28;20462;-71
2022/08/23 01:55:43;;;;;;;7.13;5.22;;;19.90;65.70;;;;;;5085353;28;20421;-72
2022/08/23 01:58:12;;;;;;;6.53;5.28;;;19.80;65.90;;;;;;5082528;28;20508;-71
2022/08/23 02:00:41;;;;;;;6.22;5.30;;;19.80;66.20;;;;;;5081366;28;20425;-71
2022/08/23 02:03:11;;;;;;;6.93;5.50;;;19.80;66.20;;;;;;5082689;28;20432;-72
2022/08/23 02:05:39;;;;;;;6.10;5.05;;;19.70;65.50;;;;;;5084324;28;20646;-71
2022/08/23 02:10:52;;;;;;;5.05;4.55;;;19.60;64.80;;;;;;5078062;28;20529;-72
2022/08/23 02:13:20;;;;;;;5.53;4.93;;;19.60;65.10;;;;;;5082630;28;20866;-71
2022/08/23 02:15:50;;;;;;;7.80;4.57;;;19.50;65.80;;;;;;5095380;28;20434;-71
2022/08/23 02:18:19;;;;;;;6.40;5.00;;;19.50;63.90;;;;;;5095275;28;20441;-72
2022/08/23 02:20:47;;;;;;;6.55;5.03;;;19.50;63.40;;;;;;5082276;28;20417;-71
2022/08/23 02:23:15;;;;;;;7.47;4.70;;;19.50;63.70;;;;;;5083927;28;20422;-71
2022/08/23 02:25:42;;;;;;;5.03;4.38;;;19.50;63.50;;;;;;5083974;28;20525;-71
2022/08/23 02:28:09;;;;;;;5.68;4.53;;;19.40;63.90;;;;;;5082894;28;20429;-71
2022/08/23 02:30:38;;;;;;;7.18;4.80;;;19.40;64.20;;;;;;5082950;28;20425;-71
2022/08/23 02:33:05;;;;;;;6.30;4.60;;;19.40;63.80;;;;;;5091393;28;20544;-71
2022/08/23 02:35:32;;;;;;;7.70;4.70;;;19.30;64.20;;;;;;5100721;28;20416;-71
2022/08/23 02:38:03;;;;;;;8.45;4.90;;;19.30;64.20;;;;;;5085205;28;20911;-71
2022/08/23 02:40:30;;;;;;;5.00;4.55;;;19.30;64.50;;;;;;5082551;28;20934;-72
2022/08/23 02:42:58;;;;;;;7.00;4.35;;;19.30;64.80;;;;;;5094872;28;20444;-72
2022/08/23 02:45:25;;;;;;;5.75;4.40;;;19.20;65.50;;;;;;5091598;28;20435;-72
2022/08/23 02:47:54;;;;;;;5.25;4.80;;;19.20;65.50;;;;;;5081732;28;20726;-72
2022/08/23 02:50:21;;;;;;;6.20;4.80;;;19.20;66.10;;;;;;5080145;28;20433;-71
2022/08/23 02:52:48;;;;;;;5.90;4.80;;;19.20;66.10;;;;;;5083715;28;20574;-71
2022/08/23 02:55:15;;;;;;;5.75;4.68;;;19.10;66.20;;;;;;5077973;28;20453;-71
2022/08/23 02:57:42;;;;;;;5.30;4.80;;;19.10;66.80;;;;;;5081436;28;20414;-71
2022/08/23 03:00:11;;;;;;;5.78;4.50;;;19.10;67.50;;;;;;5074157;28;21015;-71
2022/08/23 03:02:39;;;;;;;6.13;4.93;;;19.10;67.50;;;;;;5087450;28;20510;-72
2022/08/23 03:05:09;;;;;;;5.75;5.15;;;19.10;68.20;;;;;;5084092;28;20516;-72
2022/08/23 03:07:36;;;;;;;7.45;5.40;;;19.10;68.00;;;;;;5082211;28;20430;-72
2022/08/23 03:10:04;;;;;;;5.60;5.00;;;19.00;68.10;;;;;;5081021;28;20482;-72
2022/08/23 03:12:31;;;;;;;6.75;5.60;;;19.00;68.50;;;;;;5084213;28;20422;-71
2022/08/23 03:14:58;;;;;;;6.55;5.07;;;19.00;68.50;;;;;;5075385;28;20441;-71
2022/08/23 03:17:25;;;;;;;5.90;5.30;;;18.90;68.60;;;;;;5079721;28;20433;-71
2022/08/23 03:19:52;;;;;;;6.57;5.88;;;18.90;69.10;;;;;;5081622;28;20438;-72
2022/08/23 03:22:21;;;;;;;6.72;5.85;;;18.90;68.50;;;;;;5083677;28;20550;-72
2022/08/23 03:24:48;;;;;;;6.78;6.07;;;18.80;68.80;;;;;;5083021;28;20508;-71
2022/08/23 03:27:15;;;;;;;6.80;5.60;;;18.80;69.20;;;;;;5082461;28;20425;-72
2022/08/23 03:29:42;;;;;;;8.18;5.85;;;18.80;69.20;;;;;;5080900;28;20433;-71
2022/08/23 03:32:09;;;;;;;6.22;5.63;;;18.70;69.20;;;;;;5081952;28;20438;-72
2022/08/23 03:34:36;;;;;;;8.57;6.00;;;18.70;69.10;;;;;;5083514;28;20512;-71
2022/08/23 03:37:03;;;;;;;6.70;5.80;;;18.70;69.00;;;;;;5082123;28;20861;-72
2022/08/23 03:39:31;;;;;;;6.50;5.90;;;18.70;69.00;;;;;;5086530;28;20892;-72
2022/08/23 03:41:58;;;;;;;6.40;5.90;;;18.70;68.80;;;;;;5092603;28;20619;-71
2022/08/23 03:44:25;;;;;;;7.18;5.75;;;18.60;69.10;;;;;;5083417;28;20433;-72
2022/08/23 03:46:52;;;;;;;6.20;5.63;;;18.60;69.10;;;;;;5077080;28;20438;-71
2022/08/23 03:49:19;;;;;;;6.30;5.70;;;18.60;69.70;;;;;;5082731;28;20518;-71
2022/08/23 03:51:46;;;;;;;6.57;5.75;;;18.60;69.80;;;;;;5081996;28;20428;-71
2022/08/23 03:54:13;;;;;;;6.50;5.80;;;18.60;71.20;;;;;;5082970;28;20426;-71
2022/08/23 03:56:53;;;;;;;6.32;5.72;;;18.60;70.80;;;;;;5081703;28;20912;-72
2022/08/23 03:59:20;;;;;;;6.82;6.13;;;18.60;70.40;;;;;;5082041;28;20440;-72
2022/08/23 04:01:47;;;;;;;6.80;6.20;;;18.60;70.50;;;;;;5079764;28;20421;-71
2022/08/23 04:04:14;;;;;;;6.85;6.22;;;18.60;70.60;;;;;;5095297;28;20424;-72
2022/08/23 04:06:41;;;;;;;6.80;6.20;;;18.50;70.60;;;;;;5084217;28;20517;-71
2022/08/23 04:09:07;;;;;;;6.20;5.60;;;18.50;70.80;;;;;;5073374;28;20430;-71
2022/08/23 04:11:34;;;;;;;6.68;5.60;;;18.50;70.70;;;;;;5087209;28;20426;-72
2022/08/23 04:14:03;;;;;;;7.10;5.80;;;18.40;70.50;;;;;;5077812;28;20437;-72
2022/08/23 04:16:36;;;;;;;6.18;5.60;;;18.50;69.90;;;;;;5079564;28;20514;-71
2022/08/23 04:19:03;;;;;;;6.10;5.60;;;18.40;69.90;;;;;;5087909;28;20422;-72
2022/08/23 04:21:30;;;;;;;6.85;5.90;;;18.40;69.50;;;;;;5086877;28;20420;-72
2022/08/23 04:23:57;;;;;;;6.45;5.60;;;18.40;69.10;;;;;;5086135;28;20540;-73
2022/08/23 04:26:24;;;;;;;6.05;5.50;;;18.50;69.30;;;;;;5088602;28;20453;-71
2022/08/23 04:28:50;;;;;;;7.10;5.78;;;18.50;69.60;;;;;;5084008;28;20470;-72
2022/08/23 04:31:20;;;;;;;6.72;5.78;;;18.50;68.70;;;;;;5085154;28;20426;-71
2022/08/23 04:33:47;;;;;;;6.40;5.80;;;18.50;68.90;;;;;;5083048;28;21062;-72
2022/08/23 04:36:13;;;;;;;6.85;6.07;;;18.50;68.70;;;;;;5088998;28;20424;-71
2022/08/23 04:38:40;;;;;;;6.82;5.90;;;18.40;68.60;;;;;;5086869;28;20448;-73
2022/08/23 04:43:51;;;;;;;6.80;6.10;;;18.50;68.70;;;;;;5080742;28;20444;-71
2022/08/23 04:46:19;;;;;;;6.55;5.90;;;18.50;68.90;;;;;;5082697;28;20434;-71
2022/08/23 04:48:47;;;;;;;7.85;6.70;;;18.40;68.50;;;;;;5085109;28;20516;-72
2022/08/23 04:51:14;;;;;;;7.30;6.60;;;18.40;68.20;;;;;;5090855;28;20422;-72
2022/08/23 04:53:42;;;;;;;7.07;6.38;;;18.50;68.30;;;;;;5089660;28;20446;-73
2022/08/23 04:56:10;;;;;;;7.72;6.90;;;18.40;68.20;;;;;;5085356;28;20831;-73
2022/08/23 04:58:38;;;;;;;7.68;6.97;;;18.40;67.80;;;;;;5095768;28;20428;-71
2022/08/23 05:01:10;;;;;;;7.30;6.70;;;18.40;67.70;;;;;;5086864;28;20771;-71
2022/08/23 05:03:38;;;;;;;7.30;6.60;;;18.40;67.80;;;;;;5085249;28;20433;-71
2022/08/23 05:06:06;;;;;;;7.93;7.13;;;18.40;67.60;;;;;;5076839;28;20437;-71
2022/08/23 05:08:33;;;;;;;7.45;6.65;;;18.40;67.90;;;;;;5079483;28;20454;-72
2022/08/23 05:11:01;;;;;;;8.25;6.95;;;18.40;67.80;;;;;;5098003;28;20714;-71
2022/08/23 05:13:29;;;;;;;7.35;6.65;;;18.40;68.10;;;;;;5084753;28;20422;-72
2022/08/23 05:15:56;;;;;;;7.78;6.95;;;18.40;67.80;;;;;;5084200;28;20445;-71
2022/08/23 05:18:23;;;;;;;7.88;7.10;;;18.40;68.10;;;;;;5094799;28;20428;-72
2022/08/23 05:20:51;;;;;;;7.60;7.00;;;18.40;68.20;;;;;;5093335;28;20524;-70
2022/08/23 05:23:18;;;;;;;9.32;6.97;;;18.40;68.20;;;;;;5089238;28;20422;-71
2022/08/23 05:25:51;;;;;;;8.68;7.60;;;18.40;68.00;;;;;;5090711;28;20439;-69
2022/08/23 05:28:20;;;;;;;7.40;6.70;;;18.50;68.40;;;;;;5089086;28;20533;-71
2022/08/23 05:30:55;;;;;;;10.57;7.10;;;18.50;68.20;;;;;;5082431;28;20529;-70
2022/08/23 05:33:22;;;;;;;7.70;7.00;;;18.50;68.00;;;;;;5080742;28;20433;-70
2022/08/23 05:35:50;;;;;;;8.88;7.50;;;18.60;67.90;;;;;;5083594;28;20499;-70
2022/08/23 05:38:17;;;;;;;10.60;7.30;;;18.60;68.10;;;;;;5081566;28;20433;-71
2022/08/23 05:40:44;;;;;;;9.52;6.50;;;18.60;68.40;;;;;;5081758;28;20545;-71
2022/08/23 05:43:11;;;;;;;11.43;7.40;;;18.60;68.10;;;;;;5084920;28;20879;-71
2022/08/23 05:45:38;;;;;;;8.15;7.35;;;18.70;67.50;;;;;;5091846;28;20436;-73
2022/08/23 05:48:04;;;;;;;8.02;7.22;;;18.70;67.70;;;;;;5092048;28;20435;-74
2022/08/23 05:50:31;;;;;;;8.15;7.35;;;18.70;67.90;;;;;;5087464;28;20886;-74
2022/08/23 05:52:59;;;;;;;7.53;6.82;;;18.70;68.50;;;;;;5092581;28;20449;-74
2022/08/23 05:55:26;;;;;;;7.72;6.78;;;18.70;69.00;;;;;;5084617;28;20476;-74
2022/08/23 05:57:53;;;;;;;7.20;6.60;;;18.80;69.50;;;;;;5082607;28;20855;-75
2022/08/23 06:00:21;;;;;;;8.48;7.57;;;18.80;69.80;;;;;;5080487;28;20410;-75
2022/08/23 06:02:49;;;;;;;7.30;6.60;;;18.90;69.80;;;;;;5086735;28;20414;-75
2022/08/23 06:05:16;;;;;;;7.55;6.60;;;19.00;69.20;;;;;;5085934;28;20791;-75
2022/08/23 06:07:43;;;;;;;7.70;7.00;;;19.00;69.00;;;;;;5083792;28;20425;-76
2022/08/23 06:10:11;;;;;;;7.70;7.00;;;19.10;69.10;;;;;;5079942;28;20421;-75
2022/08/23 06:12:38;;;;;;;10.25;7.13;;;19.20;68.70;;;;;;5085584;28;20437;-75
2022/08/23 06:15:05;;;;;;;6.93;6.23;;;19.30;68.70;;;;;;5086334;28;20418;-75
2022/08/23 06:17:32;;;;;;;7.57;6.88;;;19.40;67.90;;;;;;5082628;28;20444;-75
2022/08/23 06:19:59;;;;;;;7.15;6.55;;;19.50;67.40;;;;;;5084393;28;20418;-75
2022/08/23 06:22:26;;;;;;;6.63;5.95;;;19.60;67.00;;;;;;5099033;28;20476;-76
2022/08/23 06:24:52;;;;;;;6.60;6.00;;;19.70;66.40;;;;;;5085874;28;20448;-74
2022/08/23 06:27:21;;;;;;;6.30;5.70;;;19.80;65.70;;;;;;5082555;28;20430;-75
2022/08/23 06:29:48;;;;;;;7.07;5.57;;;19.90;65.10;;;;;;5085211;28;20428;-75
2022/08/23 06:32:15;;;;;;;5.90;5.37;;;20.10;62.70;;;;;;5084713;28;20457;-75
2022/08/23 06:34:42;;;;;;;6.18;5.30;;;20.10;63.00;;;;;;5083668;28;20547;-75
2022/08/23 06:37:13;;;;;;;6.00;5.40;;;20.20;61.60;;;;;;5084270;28;20789;-74
2022/08/23 06:39:40;;;;;;;5.82;5.15;;;20.20;60.50;;;;;;5085326;28;20420;-75
2022/08/23 06:42:09;;;;;;;5.68;5.00;;;20.30;60.30;;;;;;5092474;28;20444;-74
2022/08/23 06:44:37;;;;;;;5.47;4.97;;;20.40;59.70;;;;;;5088857;28;20872;-75
2022/08/23 06:47:05;;;;;;;5.15;4.75;;;20.50;58.80;;;;;;5075647;28;20434;-76
2022/08/23 06:49:33;;;;;;;5.38;4.88;;;20.50;58.30;;;;;;5085390;28;20424;-76
2022/08/23 06:52:03;;;;;;;6.65;5.15;;;20.60;58.60;;;;;;5085712;28;20442;-75
2022/08/23 06:54:31;;;;;;;5.65;5.15;;;20.70;58.10;;;;;;5091561;28;20819;-75
2022/08/23 06:56:59;;;;;;;5.90;5.30;;;20.70;57.40;;;;;;5085612;28;20787;-74
2022/08/23 06:59:26;;;;;;;5.80;4.70;;;20.80;57.70;;;;;;5084294;28;21172;-75
2022/08/23 07:01:56;;;;;;;5.75;5.10;;;20.80;57.00;;;;;;5084136;28;20955;-76
2022/08/23 07:04:26;;;;;;;5.43;4.30;;;20.90;56.60;;;;;;5084842;28;20520;-75
2022/08/23 07:06:53;;;;;;;5.35;4.20;;;21.00;54.80;;;;;;5084642;28;20482;-75
2022/08/23 07:09:20;;;;;;;5.38;3.92;;;21.10;55.20;;;;;;5086681;28;20429;-75
2022/08/23 07:11:47;;;;;;;7.95;4.50;;;21.20;54.10;;;;;;5094559;28;20456;-74
2022/08/23 07:14:16;;;;;;;5.63;4.00;;;21.40;53.70;;;;;;5061573;22;20556;-76
2022/08/23 07:16:46;;;;;;;4.15;3.70;;;21.40;53.40;;;;;;5006954;28;20420;-76
2022/08/23 07:19:16;;;;;;;5.40;4.07;;;21.50;53.10;;;;;;5007217;28;20431;-76
2022/08/23 07:21:43;;;;;;;5.00;4.10;;;21.50;52.00;;;;;;5007595;28;20424;-76
2022/08/23 07:24:12;;;;;;;6.05;3.45;;;21.60;52.80;;;;;;5024941;28;20517;-77
2022/08/23 07:26:40;;;;;;;6.50;3.80;;;21.60;51.30;;;;;;5026347;28;20418;-77
2022/08/23 07:29:08;;;;;;;3.70;3.40;;;21.70;51.20;;;;;;5023317;28;20435;-77
2022/08/23 07:31:39;;;;;;;5.70;4.07;;;21.80;51.00;;;;;;5026518;28;20419;-76
2022/08/23 07:34:07;;;;;;;4.97;3.90;;;22.00;51.30;;;;;;5028712;28;20813;-77
2022/08/23 07:36:36;;;;;;;6.55;4.13;;;22.10;50.90;;;;;;5032502;28;20437;-78
2022/08/23 07:39:05;;;;;;;4.90;3.50;;;22.20;50.30;;;;;;5022746;28;20423;-77
2022/08/23 07:41:31;;;;;;;5.40;3.90;;;22.30;50.30;;;;;;5028090;28;20415;-77
2022/08/23 07:44:01;;;;;;;4.20;3.80;;;22.50;50.10;;;;;;5034446;28;20441;-78
2022/08/23 07:46:28;;;;;;;5.90;4.10;;;22.60;49.20;;;;;;5024968;28;20442;-76
2022/08/23 07:48:56;;;;;;;4.03;3.63;;;22.70;49.30;;;;;;5030899;28;20435;-77
2022/08/23 07:51:24;;;;;;;5.43;3.50;;;22.90;48.90;;;;;;5031719;28;20894;-77
2022/08/23 07:53:52;;;;;;;4.90;3.50;;;23.10;48.60;;;;;;5033668;28;20426;-78
2022/08/23 07:56:20;;;;;;;5.50;3.75;;;23.30;48.10;;;;;;5032756;28;20414;-78
2022/08/23 07:58:48;;;;;;;4.10;3.70;;;23.30;48.30;;;;;;5052502;28;20419;-77
2022/08/23 08:01:17;;;;;;;5.95;4.10;;;23.30;48.00;;;;;;5044099;28;20422;-77
2022/08/23 08:03:46;;;;;;;5.50;3.70;;;23.60;47.90;;;;;;5032561;28;20430;-77
2022/08/23 08:06:16;;;;;;;6.18;4.40;;;23.70;47.40;;;;;;5031270;28;20450;-77
2022/08/23 08:08:44;;;;;;;4.27;3.40;;;23.90;46.80;;;;;;5032145;28;20429;-77
2022/08/23 08:11:15;;;;;;;6.28;3.75;;;24.30;46.10;;;;;;5032411;28;20447;-77
2022/08/23 08:13:44;;;;;;;5.53;3.60;;;24.50;45.60;;;;;;5030482;28;20430;-77
2022/08/23 08:16:19;;;;;;;5.60;3.50;;;24.70;45.10;;;;;;5031891;28;20419;-77
2022/08/23 08:18:46;;;;;;;6.50;3.90;;;25.00;44.70;;;;;;5031597;28;20539;-77
2022/08/23 08:21:14;;;;;;;3.80;3.00;;;25.20;44.20;;;;;;5032950;28;20498;-78
2022/08/23 08:23:41;;;;;;;5.45;3.45;;;25.40;44.10;;;;;;5032854;28;21114;-77
2022/08/23 08:26:12;;;;;;;6.47;3.65;;;25.60;43.60;;;;;;5032127;28;20419;-77
2022/08/23 08:28:40;;;;;;;4.88;3.35;;;25.70;42.50;;;;;;5043205;28;20455;-77
2022/08/23 08:31:08;;;;;;;4.38;3.03;;;25.90;42.60;;;;;;5042612;28;20760;-77
2022/08/23 08:33:35;;;;;;;6.20;3.60;;;26.10;41.90;;;;;;5029823;28;20525;-77
2022/08/23 08:36:03;;;;;;;4.45;3.55;;;26.30;41.60;;;;;;5030710;28;20434;-78
2022/08/23 08:38:30;;;;;;;7.57;3.90;;;26.20;41.20;;;;;;5030959;28;20485;-78
2022/08/23 08:41:05;;;;;;;5.63;3.30;;;26.20;41.30;;;;;;5030918;28;20422;-77
2022/08/23 08:43:46;;;;;;;7.03;3.70;;;26.30;41.30;;;;;;5033104;28;20421;-77
2022/08/23 08:46:20;;;;;;;4.07;3.40;;;26.50;41.10;;;;;;5030089;28;20418;-77
2022/08/23 08:48:52;;;;;;;7.63;4.10;;;26.80;40.50;;;;;;5033294;28;20433;-77
2022/08/23 08:51:37;;;;;;;5.43;3.70;;;26.90;39.70;;;;;;5027286;28;20518;-77
2022/08/23 08:54:08;;;;;;;5.20;3.40;;;27.10;39.30;;;;;;5030457;28;20434;-76
2022/08/23 08:56:38;;;;;;;4.47;3.30;;;27.30;39.10;;;;;;5029499;28;20423;-76
2022/08/23 08:59:09;;;;;;;4.88;3.05;;;27.60;39.20;;;;;;5028577;28;20419;-77
2022/08/23 09:01:38;;;;;;;5.68;3.25;;;27.80;39.00;;;;;;5026082;28;20430;-77
2022/08/23 09:04:06;;;;;;;6.22;3.80;;;27.90;38.20;;;;;;5029274;28;20446;-77
2022/08/23 09:06:42;;;;;;;5.18;3.25;;;28.10;38.10;;;;;;5025015;28;20892;-77
2022/08/23 09:09:25;;;;;;;5.50;3.63;;;28.20;37.60;;;;;;5029473;28;20905;-76
2022/08/23 09:12:00;;;;;;;3.80;3.00;;;28.30;37.10;;;;;;5029187;28;20439;-76
2022/08/23 09:15:01;;;;;;;5.53;3.10;;;28.50;37.10;;;;;;5033302;28;20462;-77
2022/08/23 09:17:37;;;;;;;6.53;3.30;;;28.80;36.50;;;;;;5015665;28;20433;-77
2022/08/23 09:20:06;;;;;;;6.15;3.15;;;28.90;36.20;;;;;;5021746;28;20947;-76
2022/08/23 09:22:37;;;;;;;4.40;3.00;;;28.90;35.90;;;;;;5035468;28;20437;-77
2022/08/23 09:25:05;;;;;;;5.25;3.65;;;28.90;36.80;;;;;;5030780;28;20415;-77
2022/08/23 09:27:32;;;;;;;4.05;2.90;;;28.80;36.50;;;;;;5042287;28;20441;-77
2022/08/23 09:30:01;;;;;;;5.47;2.90;;;29.10;36.30;;;;;;5028052;28;20435;-77
2022/08/23 09:32:32;;;;;;;5.40;2.80;;;29.30;36.20;;;;;;5018851;28;20589;-77
2022/08/23 09:35:16;;;;;;;5.37;3.70;;;29.40;35.50;;;;;;5029090;28;20435;-78
2022/08/23 09:38:02;;;;;;;4.47;2.70;;;29.70;35.20;;;;;;5034763;28;20659;-77
2022/08/23 09:40:34;;;;;;;4.20;2.40;;;30.00;35.40;;;;;;5027244;28;20423;-77
2022/08/23 09:43:19;;;;;;;5.55;2.75;;;30.10;34.80;;;;;;5036242;28;20965;-77
2022/08/23 09:46:00;;;;;;;3.25;2.20;;;30.30;34.30;;;;;;5027764;28;20442;-77
2022/08/23 09:48:38;;;;;;;5.65;3.10;;;30.40;34.40;;;;;;5028236;28;20524;-77
2022/08/23 09:51:15;;;;;;;4.30;2.65;;;30.60;34.20;;;;;;5028823;28;20433;-77
2022/08/23 09:53:48;;;;;;;3.40;2.70;;;30.70;34.00;;;;;;5028856;28;20427;-76
2022/08/23 09:56:23;;;;;;;4.82;2.80;;;30.80;33.60;;;;;;5026682;28;20869;-76
2022/08/23 09:58:52;;;;;;;5.85;2.97;;;31.10;33.00;;;;;;5029376;28;20481;-77
2022/08/23 10:01:24;;;;;;;5.03;3.05;;;31.20;32.90;;;;;;5029458;28;20510;-76
2022/08/23 10:04:10;;;;;;;4.35;2.63;;;31.30;32.70;;;;;;5028234;28;20518;-77
2022/08/23 10:06:37;;;;;;;5.13;2.50;;;31.50;33.60;;;;;;5029639;28;20484;-76
2022/08/23 10:09:06;;;;;;;4.22;3.10;;;31.70;33.00;;;;;;5032348;28;20441;-76
2022/08/23 10:11:38;;;;;;;4.37;2.30;;;31.80;32.50;;;;;;5029287;28;20423;-76
2022/08/23 10:14:05;;;;;;;5.40;3.00;;;31.90;32.60;;;;;;5022726;28;20468;-76
2022/08/23 10:16:41;;;;;;;4.90;2.95;;;32.10;32.00;;;;;;5028401;28;20419;-77
2022/08/23 10:19:18;;;;;;;3.75;2.80;;;32.30;31.70;;;;;;5027980;28;20478;-76
2022/08/23 10:21:56;;;;;;;4.25;2.80;;;32.50;31.50;;;;;;5028404;28;20411;-76
2022/08/23 10:24:35;;;;;;;4.05;2.38;;;32.60;31.30;;;;;;5017281;28;20767;-76
2022/08/23 10:30:08;;;;;;;3.92;2.75;;;32.80;30.40;;;;;;5027848;28;20422;-77
2022/08/23 10:32:50;;;;;;;5.30;2.90;;;32.90;30.50;;;;;;5027673;28;20430;-77
2022/08/23 10:35:29;;;;;;;5.25;3.00;;;33.00;30.30;;;;;;5038376;28;20407;-77
2022/08/23 10:38:11;;;;;;;5.10;2.80;;;33.00;30.10;;;;;;5028034;28;20490;-77
2022/08/23 10:40:45;;;;;;;3.85;2.58;;;33.10;30.00;;;;;;5035746;28;20973;-77
2022/08/23 10:43:19;;;;;;;4.25;2.55;;;33.20;29.90;;;;;;5027914;28;20415;-77
2022/08/23 10:45:48;;;;;;;2.95;2.65;;;33.20;29.60;;;;;;5027694;28;20430;-77
2022/08/23 10:48:28;;;;;;;5.13;2.78;;;33.20;29.20;;;;;;5026862;28;20435;-77
2022/08/23 10:51:00;;;;;;;7.63;2.80;;;33.20;29.40;;;;;;5027141;28;20520;-78
2022/08/23 10:53:37;;;;;;;4.50;2.60;;;33.20;29.10;;;;;;5041603;28;20857;-76
2022/08/23 10:56:06;;;;;;;4.28;2.40;;;33.00;29.60;;;;;;5027341;28;20426;-77
2022/08/23 10:58:41;;;;;;;5.07;2.60;;;33.10;29.50;;;;;;5024909;28;20526;-78
2022/08/23 11:01:09;;;;;;;5.13;2.80;;;33.10;29.20;;;;;;5021962;28;20983;-77
2022/08/23 11:03:43;;;;;;;4.70;2.70;;;33.10;29.40;;;;;;5026932;28;20517;-77
2022/08/23 11:06:49;;;;;;;4.30;2.50;;;33.40;30.00;;;;;;5026878;28;20422;-77
2022/08/23 11:09:52;;;;;;;3.00;2.33;;;33.60;28.70;;;;;;5033264;28;20425;-76
2022/08/23 11:12:23;;;;;;;4.57;2.70;;;33.90;29.00;;;;;;5022228;28;20423;-77
2022/08/23 11:15:21;;;;;;;3.65;2.42;;;34.00;28.50;;;;;;5027351;28;20442;-77
2022/08/23 11:18:03;;;;;;;4.53;2.30;;;34.20;28.60;;;;;;5026513;28;20963;-79
2022/08/23 11:20:58;;;;;;;4.60;2.38;;;34.10;28.50;;;;;;5026555;28;20952;-76
2022/08/23 11:23:48;;;;;;;4.70;2.50;;;34.10;28.60;;;;;;5019237;28;20425;-77
2022/08/23 11:27:03;;;;;;;4.00;2.45;;;34.10;28.70;;;;;;5015134;28;20583;-78
2022/08/23 11:29:35;;;;;;;3.43;1.90;;;34.20;28.30;;;;;;4969713;28;20786;-77
2022/08/23 11:32:14;;;;;;;4.47;2.35;;;34.30;28.70;;;;;;4967169;28;20461;-79
2022/08/23 11:34:48;;;;;;;4.00;2.60;;;34.30;27.90;;;;;;5010276;28;20439;-77
2022/08/23 11:37:29;;;;;;;3.00;2.10;;;34.40;28.00;;;;;;5027396;28;20865;-76
2022/08/23 11:40:08;;;;;;;4.25;2.50;;;34.40;28.20;;;;;;5036916;28;20424;-78
2022/08/23 11:42:49;;;;;;;4.80;2.20;;;34.40;27.60;;;;;;5026170;28;20430;-77
2022/08/23 11:45:29;;;;;;;3.80;2.20;;;34.40;27.90;;;;;;5025435;28;20419;-78
2022/08/23 11:48:11;;;;;;;3.20;2.20;;;34.60;27.90;;;;;;5026161;28;20882;-77
2022/08/23 11:50:59;;;;;;;3.60;1.90;;;34.70;27.40;;;;;;5032318;28;20846;-76
2022/08/23 11:53:42;;;;;;;2.20;2.00;;;35.00;27.20;;;;;;5027257;28;20431;-76
2022/08/23 11:56:32;;;;;;;3.15;1.95;;;35.00;27.10;;;;;;5035888;28;20417;-78
2022/08/23 11:59:25;;;;;;;3.63;2.08;;;34.80;26.80;;;;;;5035707;28;20426;-78
2022/08/23 12:01:52;;;;;;;3.42;1.85;;;34.70;26.70;;;;;;5026236;28;20463;-76
2022/08/23 12:04:36;;;;;;;2.80;2.27;;;34.90;26.90;;;;;;5027884;28;20419;-77
2022/08/23 12:07:10;;;;;;;4.38;2.70;;;35.00;26.90;;;;;;5026398;28;20431;-78
2022/08/23 12:09:59;;;;;;;4.00;2.20;;;35.20;26.40;;;;;;5029861;28;20433;-77
2022/08/23 12:12:33;;;;;;;4.00;1.95;;;35.10;26.70;;;;;;5020694;28;20801;-78
2022/08/23 12:15:02;;;;;;;2.37;2.00;;;35.10;26.40;;;;;;5027263;28;20522;-76
2022/08/23 12:17:56;;;;;;;2.83;2.10;;;34.80;26.80;;;;;;5025499;28;21051;-76
2022/08/23 12:20:30;;;;;;;3.20;1.90;;;34.30;26.90;;;;;;5022020;28;20431;-78
2022/08/23 12:23:06;;;;;;;4.55;2.20;;;33.90;27.50;;;;;;5025261;28;20968;-77
2022/08/23 12:25:34;;;;;;;2.75;2.30;;;33.60;27.80;;;;;;5026823;28;20541;-77
2022/08/23 12:28:10;;;;;;;3.60;2.03;;;33.30;27.90;;;;;;5027921;28;20439;-78
2022/08/23 12:30:47;;;;;;;3.22;2.15;;;33.10;27.60;;;;;;5054085;28;20418;-80
2022/08/23 12:33:26;;;;;;;4.20;2.40;;;33.10;28.30;;;;;;5039612;28;20933;-79
2022/08/23 12:36:01;;;;;;;3.40;2.30;;;33.00;28.10;;;;;;5029408;28;20917;-77
2022/08/23 12:38:39;;;;;;;3.80;2.28;;;33.00;28.50;;;;;;5035358;28;20442;-76
2022/08/23 12:41:18;;;;;;;4.05;2.33;;;32.90;28.50;;;;;;5034305;28;20912;-77
2022/08/23 12:43:55;;;;;;;4.20;2.22;;;33.30;27.90;;;;;;5031884;28;20480;-76
2022/08/23 12:46:34;;;;;;;3.33;2.10;;;33.20;27.90;;;;;;5030604;28;20415;-77
2022/08/23 12:49:01;;;;;;;2.38;2.10;;;33.40;27.90;;;;;;5030280;28;20448;-78
2022/08/23 12:51:28;;;;;;;3.78;2.20;;;33.40;27.70;;;;;;5031623;28;20427;-78
2022/08/23 12:53:56;;;;;;;3.13;1.90;;;33.40;28.20;;;;;;5030235;28;20426;-79
2022/08/23 12:56:28;;;;;;;3.13;1.95;;;33.20;28.20;;;;;;5031380;28;20431;-77
2022/08/23 12:58:59;;;;;;;2.65;2.00;;;33.00;28.60;;;;;;5031300;28;20446;-78
2022/08/23 13:01:29;;;;;;;4.70;2.70;;;32.80;28.40;;;;;;5031791;28;20473;-77
2022/08/23 13:03:59;;;;;;;5.53;2.40;;;32.60;28.90;;;;;;5029493;28;20443;-78
2022/08/23 13:06:30;;;;;;;3.08;2.10;;;32.60;29.30;;;;;;5030933;28;20434;-78
2022/08/23 13:09:02;;;;;;;4.07;2.20;;;32.80;29.70;;;;;;5032548;28;20435;-78
2022/08/23 13:11:33;;;;;;;6.78;2.40;;;33.00;29.80;;;;;;5033051;28;20423;-78
2022/08/23 13:14:00;;;;;;;5.75;2.15;;;33.10;29.30;;;;;;5030832;28;20437;-78
2022/08/23 13:16:31;;;;;;;4.78;2.00;;;33.10;28.70;;;;;;5028927;28;20554;-77
2022/08/23 13:19:15;;;;;;;2.38;2.10;;;33.20;28.00;;;;;;5027697;28;20526;-77